Time;durP1;ratioP1;P1;durP2;ratioP2;P2;SDS_P1;SDS_P2;PMS_P1;PMS_P2;Temp;Humidity;BMP_temperature;BMP_pressure;BME280_temperature;BME280_humidity;BME280_pressure;Samples;Min_cycle;Max_cycle;Signal;HPM_P1;HPM_P2
2024/03/04 00:00:10;;;;;;;5.90;3.97;;;8.20;99.90;;;;;;4952082;28;20067;-64
2024/03/04 00:02:37;;;;;;;5.07;4.00;;;8.20;99.90;;;;;;4953631;28;20079;-64
2024/03/04 00:05:05;;;;;;;6.05;4.28;;;8.10;99.90;;;;;;4958672;28;20050;-64
2024/03/04 00:07:31;;;;;;;5.45;3.38;;;8.00;99.90;;;;;;4951882;28;20069;-64
2024/03/04 00:09:58;;;;;;;4.35;3.88;;;8.10;99.90;;;;;;4952082;28;20525;-64
2024/03/04 00:12:25;;;;;;;4.20;3.80;;;8.10;99.90;;;;;;4950719;28;20520;-64
2024/03/04 00:14:52;;;;;;;4.55;3.55;;;8.10;99.90;;;;;;4950133;28;20055;-64
2024/03/04 00:17:19;;;;;;;4.80;3.72;;;8.00;99.90;;;;;;4952998;28;20086;-64
2024/03/04 00:19:46;;;;;;;5.78;3.70;;;8.00;99.90;;;;;;4951273;28;20099;-64
2024/03/04 00:22:13;;;;;;;5.47;3.42;;;8.00;99.90;;;;;;4954566;28;20460;-64
2024/03/04 00:24:40;;;;;;;6.53;4.05;;;8.00;99.90;;;;;;4952214;28;20265;-64
2024/03/04 00:27:07;;;;;;;6.43;3.90;;;8.10;99.90;;;;;;4951537;28;20047;-64
2024/03/04 00:29:34;;;;;;;5.00;3.80;;;8.10;99.90;;;;;;4951404;28;20478;-64
2024/03/04 00:32:01;;;;;;;5.75;3.70;;;8.10;99.90;;;;;;4950295;28;20059;-64
2024/03/04 00:34:28;;;;;;;3.85;3.45;;;8.10;99.90;;;;;;4949929;28;20043;-64
2024/03/04 00:36:54;;;;;;;6.55;3.83;;;8.00;99.90;;;;;;4951305;28;20039;-64
2024/03/04 00:39:21;;;;;;;4.25;3.80;;;7.90;99.90;;;;;;4950698;28;21378;-64
2024/03/04 00:41:48;;;;;;;5.25;3.40;;;8.00;99.90;;;;;;4948603;28;20151;-64
2024/03/04 00:44:15;;;;;;;4.32;3.88;;;8.00;99.90;;;;;;4946228;28;20067;-64
2024/03/04 00:46:42;;;;;;;4.22;3.83;;;8.00;99.90;;;;;;4952903;28;20046;-64
2024/03/04 00:49:09;;;;;;;4.32;3.75;;;7.90;99.90;;;;;;4947874;28;20503;-64
2024/03/04 00:51:36;;;;;;;3.92;3.42;;;7.90;99.90;;;;;;4952115;28;20051;-64
2024/03/04 00:54:03;;;;;;;4.70;4.28;;;8.00;99.90;;;;;;4952852;28;20049;-64
2024/03/04 00:56:30;;;;;;;4.13;3.53;;;7.90;99.90;;;;;;4951008;28;20102;-64
2024/03/04 00:58:58;;;;;;;5.43;3.83;;;7.90;99.90;;;;;;4950209;28;20051;-64
2024/03/04 01:01:25;;;;;;;4.68;3.15;;;7.90;99.90;;;;;;4951446;28;20043;-64
2024/03/04 01:03:52;;;;;;;4.10;3.63;;;7.90;99.90;;;;;;4951042;28;21730;-64
2024/03/04 01:06:18;;;;;;;4.10;3.40;;;7.90;99.90;;;;;;4948716;28;20057;-64
2024/03/04 01:08:45;;;;;;;4.50;3.92;;;7.90;99.90;;;;;;4951839;28;20496;-64
2024/03/04 01:11:12;;;;;;;5.20;3.72;;;7.90;99.90;;;;;;4951000;28;20606;-64
2024/03/04 01:13:39;;;;;;;5.95;3.80;;;7.80;99.90;;;;;;4949886;28;20050;-64
2024/03/04 01:16:05;;;;;;;4.03;3.60;;;7.80;99.90;;;;;;4947285;28;20492;-64
2024/03/04 01:18:32;;;;;;;7.30;3.78;;;7.80;99.90;;;;;;4949381;28;20059;-64
2024/03/04 01:20:59;;;;;;;4.95;3.58;;;7.70;99.90;;;;;;4950224;28;20043;-64
2024/03/04 01:23:26;;;;;;;5.43;3.85;;;7.70;99.90;;;;;;4948443;28;20051;-64
2024/03/04 01:25:54;;;;;;;4.00;3.58;;;7.70;99.90;;;;;;4949016;28;20452;-64
2024/03/04 01:28:24;;;;;;;3.65;3.35;;;7.70;99.90;;;;;;4949277;28;20527;-64
2024/03/04 01:30:53;;;;;;;3.75;3.42;;;7.60;99.90;;;;;;4946658;28;20148;-64
2024/03/04 01:33:19;;;;;;;5.70;3.50;;;7.50;99.90;;;;;;4948313;28;20048;-64
2024/03/04 01:35:47;;;;;;;4.40;3.58;;;7.60;99.90;;;;;;4948198;28;20098;-64
2024/03/04 01:38:14;;;;;;;4.20;3.58;;;7.50;99.90;;;;;;4949188;28;20047;-64
2024/03/04 01:40:41;;;;;;;5.28;4.07;;;7.60;99.90;;;;;;4950627;28;20182;-64
2024/03/04 01:43:08;;;;;;;5.88;3.97;;;7.50;99.90;;;;;;4953389;28;20049;-64
2024/03/04 01:45:35;;;;;;;4.95;4.10;;;7.60;99.90;;;;;;4948784;28;20047;-64
2024/03/04 01:48:04;;;;;;;5.97;4.00;;;7.50;99.90;;;;;;4953146;28;20059;-64
2024/03/04 01:50:35;;;;;;;5.85;4.65;;;7.50;99.90;;;;;;4949377;28;20058;-64
2024/03/04 01:53:04;;;;;;;4.45;4.05;;;7.50;99.90;;;;;;4946014;28;20506;-64
2024/03/04 01:55:36;;;;;;;4.22;3.78;;;7.60;99.90;;;;;;4948369;28;20397;-64
2024/03/04 01:58:05;;;;;;;6.03;4.15;;;7.60;99.90;;;;;;4949654;28;20444;-64
2024/03/04 02:00:34;;;;;;;5.13;4.22;;;7.50;99.90;;;;;;4950392;28;20047;-64
2024/03/04 02:03:02;;;;;;;6.00;4.40;;;7.50;99.90;;;;;;4952838;28;20050;-64
2024/03/04 02:05:29;;;;;;;6.07;4.43;;;7.50;99.90;;;;;;4950005;28;20465;-64
2024/03/04 02:07:57;;;;;;;4.78;4.32;;;7.50;99.90;;;;;;4948880;28;20043;-64
2024/03/04 02:10:23;;;;;;;7.60;4.30;;;7.50;99.90;;;;;;4950429;28;20134;-64
2024/03/04 02:12:50;;;;;;;5.07;4.32;;;7.40;99.90;;;;;;4952435;28;20051;-64
2024/03/04 02:15:17;;;;;;;4.70;4.20;;;7.30;99.90;;;;;;4931998;28;20051;-64
2024/03/04 02:17:45;;;;;;;5.35;4.30;;;7.30;99.90;;;;;;4950458;28;20067;-64
2024/03/04 02:20:15;;;;;;;4.90;4.40;;;7.40;99.90;;;;;;4951432;28;20055;-64
2024/03/04 02:22:42;;;;;;;5.30;4.10;;;7.40;99.90;;;;;;4950403;28;20129;-64
2024/03/04 02:25:12;;;;;;;5.35;4.68;;;7.40;99.90;;;;;;4947507;28;20444;-64
2024/03/04 02:27:39;;;;;;;5.90;4.50;;;7.50;99.90;;;;;;4949037;28;20157;-64
2024/03/04 02:30:07;;;;;;;5.40;4.53;;;7.40;99.90;;;;;;4947543;28;20535;-64
2024/03/04 02:32:35;;;;;;;8.02;4.47;;;7.50;99.90;;;;;;4954031;28;20495;-64
2024/03/04 02:35:04;;;;;;;5.97;4.55;;;7.50;99.90;;;;;;4947632;28;20043;-63
2024/03/04 02:37:35;;;;;;;6.25;4.90;;;7.50;99.90;;;;;;4951360;28;20043;-64
2024/03/04 02:40:04;;;;;;;6.10;5.13;;;7.60;99.90;;;;;;4947244;28;20130;-64
2024/03/04 02:42:31;;;;;;;5.18;4.60;;;7.50;99.90;;;;;;4946246;28;20043;-64
2024/03/04 02:44:59;;;;;;;4.93;4.25;;;7.50;99.90;;;;;;4950416;28;20107;-64
2024/03/04 02:47:26;;;;;;;9.00;4.70;;;7.50;99.90;;;;;;4947669;28;20048;-64
2024/03/04 02:49:52;;;;;;;5.38;4.55;;;7.50;99.90;;;;;;4947998;28;20552;-64
2024/03/04 02:52:19;;;;;;;6.15;4.40;;;7.50;99.90;;;;;;4946682;28;20142;-64
2024/03/04 02:54:46;;;;;;;5.40;4.53;;;7.40;99.90;;;;;;4946858;28;20091;-64
2024/03/04 02:57:13;;;;;;;6.40;4.25;;;7.40;99.90;;;;;;4948444;28;20106;-64
2024/03/04 02:59:41;;;;;;;7.03;4.60;;;7.40;99.90;;;;;;4946714;28;20055;-64
2024/03/04 03:02:08;;;;;;;5.97;4.85;;;7.30;99.90;;;;;;4950202;28;20507;-64
2024/03/04 03:04:34;;;;;;;7.63;5.38;;;7.30;99.90;;;;;;4949691;28;20055;-63
2024/03/04 03:07:01;;;;;;;5.90;4.55;;;7.20;99.90;;;;;;4949931;28;20063;-64
2024/03/04 03:09:28;;;;;;;6.60;4.95;;;7.20;99.90;;;;;;4943892;28;20063;-63
2024/03/04 03:11:55;;;;;;;5.82;4.40;;;7.20;99.90;;;;;;4948362;28;20684;-64
2024/03/04 03:14:22;;;;;;;4.72;4.10;;;7.20;99.90;;;;;;4945921;28;20090;-64
2024/03/04 03:16:49;;;;;;;6.35;4.53;;;7.30;99.90;;;;;;4952980;28;20126;-64
2024/03/04 03:19:26;;;;;;;6.45;5.07;;;7.30;99.90;;;;;;4948772;28;20446;-63
2024/03/04 03:21:53;;;;;;;5.63;4.50;;;7.30;99.90;;;;;;4953021;28;20051;-64
2024/03/04 03:24:20;;;;;;;6.68;4.43;;;7.30;99.90;;;;;;4946179;28;20051;-64
2024/03/04 03:26:47;;;;;;;6.75;5.35;;;7.20;99.90;;;;;;4956415;28;20066;-64
2024/03/04 03:29:14;;;;;;;6.57;5.18;;;7.20;99.90;;;;;;4950929;28;20047;-64
2024/03/04 03:31:41;;;;;;;5.88;5.28;;;7.30;99.90;;;;;;4953769;28;20100;-64
2024/03/04 03:34:08;;;;;;;9.05;4.95;;;7.30;99.90;;;;;;4950410;28;20451;-63
2024/03/04 03:36:40;;;;;;;5.80;4.40;;;7.30;99.90;;;;;;4946662;28;20114;-64
2024/03/04 03:39:09;;;;;;;6.57;5.00;;;7.30;99.90;;;;;;4945825;28;20519;-64
2024/03/04 03:41:36;;;;;;;6.55;5.32;;;7.30;99.90;;;;;;4946721;28;20050;-64
2024/03/04 03:44:03;;;;;;;7.72;5.70;;;7.30;99.90;;;;;;4949630;28;20484;-64
2024/03/04 03:46:30;;;;;;;5.13;4.63;;;7.20;99.90;;;;;;4953949;28;20389;-64
2024/03/04 03:48:57;;;;;;;7.32;5.07;;;7.30;99.90;;;;;;4946797;28;20055;-64
2024/03/04 03:51:24;;;;;;;8.02;5.32;;;7.30;99.90;;;;;;4946250;28;20150;-64
2024/03/04 03:53:50;;;;;;;6.03;5.13;;;7.30;99.90;;;;;;4947646;28;20047;-64
2024/03/04 03:56:18;;;;;;;6.72;4.88;;;7.30;99.90;;;;;;4946823;28;20085;-64
2024/03/04 03:58:45;;;;;;;7.85;5.70;;;7.30;99.90;;;;;;4949323;28;20118;-64
2024/03/04 04:01:12;;;;;;;8.18;5.25;;;7.20;99.90;;;;;;4947329;28;20557;-64
2024/03/04 04:03:38;;;;;;;7.45;5.70;;;7.30;99.90;;;;;;4951460;28;20481;-64
2024/03/04 04:06:05;;;;;;;7.90;5.20;;;7.30;99.90;;;;;;4951006;28;20058;-64
2024/03/04 04:08:32;;;;;;;7.75;5.57;;;7.20;99.90;;;;;;4952261;28;20110;-64
2024/03/04 04:10:59;;;;;;;7.75;5.60;;;7.30;99.90;;;;;;4937939;28;20128;-64
2024/03/04 04:13:28;;;;;;;6.80;5.75;;;7.30;99.90;;;;;;4950293;28;20051;-64
2024/03/04 04:15:55;;;;;;;7.72;6.25;;;7.20;99.90;;;;;;4950935;28;20051;-64
2024/03/04 04:18:23;;;;;;;9.05;6.55;;;7.20;99.90;;;;;;4953126;28;20073;-64
2024/03/04 04:20:50;;;;;;;7.85;5.53;;;7.30;99.90;;;;;;4952994;28;20051;-64
2024/03/04 04:23:17;;;;;;;6.97;5.55;;;7.30;99.90;;;;;;4950807;28;20401;-64
2024/03/04 04:25:44;;;;;;;8.30;5.72;;;7.20;99.90;;;;;;4951605;28;20062;-64
2024/03/04 04:28:11;;;;;;;8.95;6.40;;;7.30;99.90;;;;;;4953513;28;20512;-64
2024/03/04 04:30:40;;;;;;;10.65;6.13;;;7.30;99.90;;;;;;4950458;28;20496;-64
2024/03/04 04:33:07;;;;;;;8.90;6.13;;;7.30;99.90;;;;;;4948610;28;20582;-64
2024/03/04 04:35:35;;;;;;;7.50;6.05;;;7.30;99.90;;;;;;4952183;28;20460;-64
2024/03/04 04:38:02;;;;;;;8.27;6.25;;;7.20;99.90;;;;;;4952872;28;20043;-64
2024/03/04 04:40:28;;;;;;;9.50;6.68;;;7.20;99.90;;;;;;4954403;28;20063;-64
2024/03/04 04:42:56;;;;;;;8.48;6.20;;;7.20;99.90;;;;;;4951785;28;20094;-64
2024/03/04 04:45:24;;;;;;;9.38;6.68;;;7.20;99.90;;;;;;4950920;28;20058;-64
2024/03/04 04:47:53;;;;;;;7.90;6.13;;;7.20;99.90;;;;;;4950718;28;20377;-64
2024/03/04 04:50:19;;;;;;;9.43;6.72;;;7.10;99.90;;;;;;4950014;28;20059;-64
2024/03/04 04:52:46;;;;;;;8.52;6.50;;;7.20;99.90;;;;;;4949070;28;20043;-64
2024/03/04 04:55:13;;;;;;;7.65;6.10;;;7.20;99.90;;;;;;4948215;28;20424;-64
2024/03/04 04:57:44;;;;;;;8.70;6.72;;;7.10;99.90;;;;;;4947170;28;20043;-64
2024/03/04 05:00:12;;;;;;;12.25;6.95;;;7.10;99.90;;;;;;4947932;28;20051;-64
2024/03/04 05:02:40;;;;;;;8.45;6.47;;;7.10;99.90;;;;;;4951994;28;20070;-64
2024/03/04 05:05:08;;;;;;;7.63;6.60;;;7.20;99.90;;;;;;4952750;28;20065;-64
2024/03/04 05:07:35;;;;;;;9.95;6.55;;;7.20;99.90;;;;;;4950578;28;20440;-64
2024/03/04 05:10:03;;;;;;;7.93;6.47;;;7.20;99.90;;;;;;4943353;28;20092;-64
2024/03/04 05:12:30;;;;;;;7.97;6.25;;;7.20;99.90;;;;;;4947126;28;20047;-64
2024/03/04 05:14:57;;;;;;;9.30;7.03;;;7.30;99.90;;;;;;4951047;28;20133;-64
2024/03/04 05:17:24;;;;;;;9.07;6.68;;;7.20;99.90;;;;;;4946804;28;20078;-64
2024/03/04 05:19:51;;;;;;;9.23;7.13;;;7.10;99.90;;;;;;4949549;28;20531;-64
2024/03/04 05:22:18;;;;;;;9.88;7.28;;;7.10;99.90;;;;;;4948620;28;20138;-64
2024/03/04 05:24:45;;;;;;;9.15;7.00;;;7.10;99.90;;;;;;4950847;28;20051;-64
2024/03/04 05:27:12;;;;;;;8.43;6.75;;;7.20;99.90;;;;;;4949371;28;20059;-64
2024/03/04 05:29:39;;;;;;;9.88;7.13;;;7.10;99.90;;;;;;4949006;28;20055;-64
2024/03/04 05:32:06;;;;;;;8.63;6.88;;;7.20;99.90;;;;;;4955507;28;20048;-64
2024/03/04 05:34:33;;;;;;;11.93;7.05;;;7.20;99.90;;;;;;4948872;28;20160;-64
2024/03/04 05:37:00;;;;;;;12.75;7.05;;;7.20;99.90;;;;;;4949958;28;20053;-64
2024/03/04 05:39:31;;;;;;;10.25;7.60;;;7.30;99.90;;;;;;4948611;28;20047;-64
2024/03/04 05:41:58;;;;;;;10.73;7.55;;;7.30;99.90;;;;;;4945165;28;20047;-64
2024/03/04 05:44:25;;;;;;;8.95;7.13;;;7.30;99.90;;;;;;4935213;28;20145;-64
2024/03/04 05:46:52;;;;;;;11.40;7.20;;;7.20;99.90;;;;;;4945249;28;20205;-64
2024/03/04 05:49:19;;;;;;;10.35;6.90;;;7.20;99.90;;;;;;4939422;28;20111;-64
2024/03/04 05:51:46;;;;;;;8.95;6.85;;;7.20;99.90;;;;;;4945695;28;20341;-64
2024/03/04 05:54:12;;;;;;;10.93;7.28;;;7.30;99.90;;;;;;4940984;28;20047;-63
2024/03/04 05:56:41;;;;;;;9.35;7.30;;;7.30;99.90;;;;;;4948766;28;20047;-64
2024/03/04 05:59:09;;;;;;;10.77;7.13;;;7.30;99.90;;;;;;4947831;28;20067;-63
2024/03/04 06:01:36;;;;;;;9.05;6.80;;;7.30;99.90;;;;;;4950125;28;20849;-64
2024/03/04 06:04:04;;;;;;;8.18;6.88;;;7.40;99.90;;;;;;4948444;28;20054;-64
2024/03/04 06:06:32;;;;;;;9.82;7.55;;;7.30;99.90;;;;;;4949800;28;20058;-64
2024/03/04 06:08:59;;;;;;;9.77;7.03;;;7.30;99.90;;;;;;4950100;28;20051;-64
2024/03/04 06:11:26;;;;;;;10.38;6.70;;;7.20;99.90;;;;;;4948420;28;20105;-64
2024/03/04 06:13:53;;;;;;;8.35;6.18;;;7.20;99.90;;;;;;4955386;28;20416;-64
2024/03/04 06:16:20;;;;;;;13.23;7.93;;;7.20;99.90;;;;;;4952059;28;20115;-64
2024/03/04 06:18:47;;;;;;;9.57;7.25;;;7.10;99.90;;;;;;4951223;28;20043;-63
2024/03/04 06:21:14;;;;;;;14.38;9.07;;;7.10;99.90;;;;;;4948768;28;20606;-63
2024/03/04 06:23:41;;;;;;;10.18;7.47;;;7.10;99.90;;;;;;4950062;28;20063;-63
2024/03/04 06:26:11;;;;;;;10.85;7.65;;;7.00;99.90;;;;;;4954273;28;20140;-63
2024/03/04 06:28:38;;;;;;;10.93;7.40;;;7.10;99.90;;;;;;4948371;28;20069;-63
2024/03/04 06:31:06;;;;;;;11.23;8.00;;;7.10;99.90;;;;;;4953007;28;20058;-63
2024/03/04 06:33:33;;;;;;;11.02;8.57;;;7.10;99.90;;;;;;4948933;28;20065;-60
2024/03/04 06:36:18;;;;;;;12.52;8.52;;;7.00;99.90;;;;;;4949685;28;20051;-62
2024/03/04 06:38:45;;;;;;;11.77;8.27;;;7.00;99.90;;;;;;4944053;28;20043;-59
2024/03/04 06:41:12;;;;;;;13.30;8.80;;;7.10;99.90;;;;;;4949202;28;20055;-61
2024/03/04 06:43:39;;;;;;;16.17;8.73;;;7.00;99.90;;;;;;4949479;28;20061;-60
2024/03/04 06:46:07;;;;;;;15.40;9.77;;;7.00;99.90;;;;;;4941861;28;20043;-60
2024/03/04 06:48:34;;;;;;;12.57;9.40;;;6.90;99.90;;;;;;4948776;28;20051;-60
2024/03/04 06:51:01;;;;;;;12.35;9.23;;;6.80;99.90;;;;;;4929470;28;20122;-61
2024/03/04 06:53:28;;;;;;;14.18;9.90;;;6.90;99.90;;;;;;4944160;28;20162;-59
2024/03/04 06:55:54;;;;;;;12.95;8.88;;;6.80;99.90;;;;;;4949992;28;20043;-61
2024/03/04 06:58:23;;;;;;;13.90;9.95;;;6.90;99.90;;;;;;4953928;28;20055;-61
2024/03/04 07:00:51;;;;;;;13.65;8.73;;;6.90;99.90;;;;;;4946381;28;20503;-60
2024/03/04 07:03:18;;;;;;;16.23;10.20;;;6.90;99.90;;;;;;4948871;28;20051;-59
2024/03/04 07:05:45;;;;;;;14.07;9.70;;;7.00;99.90;;;;;;4950030;28;20130;-59
2024/03/04 07:08:12;;;;;;;12.43;8.80;;;7.00;99.90;;;;;;4945568;28;20051;-58
2024/03/04 07:10:38;;;;;;;13.93;9.10;;;7.00;99.90;;;;;;4953518;28;20050;-62
2024/03/04 07:13:06;;;;;;;12.27;9.20;;;7.10;99.90;;;;;;4949337;28;20099;-61
2024/03/04 07:15:33;;;;;;;14.55;8.23;;;7.20;99.90;;;;;;4946437;28;20107;-60
2024/03/04 07:17:59;;;;;;;10.40;8.23;;;7.20;99.90;;;;;;4945423;28;20055;-62
2024/03/04 07:20:26;;;;;;;14.50;8.25;;;7.20;99.90;;;;;;4935487;28;20063;-62
2024/03/04 07:22:53;;;;;;;10.45;8.73;;;7.30;99.90;;;;;;4945507;28;20095;-61
2024/03/04 07:25:19;;;;;;;11.73;8.27;;;7.40;99.90;;;;;;4928394;28;20055;-59
2024/03/04 07:27:46;;;;;;;14.55;8.15;;;7.40;99.90;;;;;;4948318;28;20442;-61
2024/03/04 07:30:14;;;;;;;12.00;7.97;;;7.40;99.90;;;;;;4948112;28;20075;-61
2024/03/04 07:32:40;;;;;;;15.73;8.40;;;7.40;99.90;;;;;;4944406;28;20151;-62
2024/03/04 07:35:07;;;;;;;11.27;8.18;;;7.50;99.90;;;;;;4948231;28;20111;-62
2024/03/04 07:37:34;;;;;;;12.57;8.55;;;7.40;99.90;;;;;;4948360;28;20055;-62
2024/03/04 07:40:17;;;;;;;10.45;8.20;;;7.50;99.90;;;;;;4949962;28;20054;-63
2024/03/04 07:42:43;;;;;;;13.57;8.10;;;7.60;99.90;;;;;;4948435;28;20059;-62
2024/03/04 07:45:10;;;;;;;9.13;8.07;;;7.60;99.90;;;;;;4957341;28;20058;-62
2024/03/04 07:47:37;;;;;;;9.95;8.20;;;7.60;99.90;;;;;;4950786;28;20051;-62
2024/03/04 07:50:04;;;;;;;10.48;8.18;;;7.60;99.90;;;;;;4955121;28;20047;-62
2024/03/04 07:52:31;;;;;;;13.25;7.90;;;7.60;99.90;;;;;;4951981;28;20043;-62
2024/03/04 07:54:58;;;;;;;14.88;8.40;;;7.60;99.90;;;;;;4951179;28;20111;-62
2024/03/04 07:57:25;;;;;;;11.93;8.73;;;7.60;99.90;;;;;;4950436;28;20126;-62
2024/03/04 07:59:52;;;;;;;12.60;8.45;;;7.50;99.90;;;;;;4951807;28;20055;-62
2024/03/04 08:02:18;;;;;;;14.55;8.68;;;7.50;99.90;;;;;;4950543;28;20089;-62
2024/03/04 08:04:45;;;;;;;15.18;8.77;;;7.60;99.90;;;;;;4953323;28;20094;-62
2024/03/04 08:07:12;;;;;;;11.50;8.13;;;7.60;99.90;;;;;;4952236;28;20054;-62
2024/03/04 08:09:39;;;;;;;12.80;7.97;;;7.60;99.90;;;;;;4950996;28;20106;-63
2024/03/04 08:12:08;;;;;;;16.48;9.00;;;7.60;99.90;;;;;;4951722;28;20051;-62
2024/03/04 08:14:36;;;;;;;12.88;7.78;;;7.60;99.90;;;;;;4957361;28;20047;-62
2024/03/04 08:17:03;;;;;;;11.60;7.88;;;7.60;99.90;;;;;;4952442;28;20051;-62
2024/03/04 08:23:01;;;;;;;11.50;8.33;;;7.60;99.90;;;;;;4952353;28;20046;-61
2024/03/04 08:25:28;;;;;;;12.90;8.13;;;7.60;99.90;;;;;;4950303;28;20323;-62
2024/03/04 08:27:55;;;;;;;11.52;7.47;;;7.70;99.90;;;;;;4952421;28;20095;-61
2024/03/04 08:30:22;;;;;;;11.70;8.48;;;7.70;99.90;;;;;;4952680;28;20066;-62
2024/03/04 08:32:53;;;;;;;11.48;7.93;;;7.70;99.90;;;;;;4951076;28;20637;-63
2024/03/04 08:35:20;;;;;;;10.02;7.50;;;7.70;99.90;;;;;;4945135;28;20755;-61
2024/03/04 08:37:47;;;;;;;9.60;7.32;;;7.70;99.90;;;;;;4947878;28;20043;-60
2024/03/04 08:40:14;;;;;;;13.20;8.30;;;7.80;99.90;;;;;;4946212;28;20722;-60
2024/03/04 08:42:42;;;;;;;10.02;7.82;;;7.80;99.90;;;;;;4951855;28;20043;-61
2024/03/04 08:45:09;;;;;;;10.25;7.35;;;7.80;99.90;;;;;;4945606;28;20469;-63
2024/03/04 08:47:36;;;;;;;10.05;7.38;;;7.90;99.90;;;;;;4951308;28;20540;-61
2024/03/04 08:50:04;;;;;;;11.35;7.30;;;7.90;99.90;;;;;;4949740;28;20086;-62
2024/03/04 08:52:30;;;;;;;11.57;7.50;;;7.90;99.90;;;;;;4950202;28;20680;-62
2024/03/04 08:54:58;;;;;;;9.65;7.78;;;7.90;99.90;;;;;;4951487;28;20130;-60
2024/03/04 08:57:25;;;;;;;9.35;7.20;;;7.90;99.90;;;;;;4951853;28;20580;-61
2024/03/04 08:59:51;;;;;;;10.80;7.78;;;8.00;99.90;;;;;;4950751;28;20061;-62
2024/03/04 09:02:19;;;;;;;12.48;7.53;;;7.90;99.90;;;;;;4947200;28;20050;-62
2024/03/04 09:04:47;;;;;;;15.95;7.70;;;7.90;99.90;;;;;;4947738;28;20440;-61
2024/03/04 09:07:20;;;;;;;9.90;8.05;;;7.80;99.90;;;;;;4952088;28;20086;-62
2024/03/04 09:09:50;;;;;;;11.25;7.70;;;7.80;99.90;;;;;;4948402;28;20055;-61
2024/03/04 09:12:18;;;;;;;9.95;7.78;;;7.70;99.90;;;;;;4951791;28;20051;-63
2024/03/04 09:14:44;;;;;;;9.60;7.40;;;7.80;99.90;;;;;;4932083;29;20043;-62
2024/03/04 09:17:11;;;;;;;10.35;6.95;;;7.70;99.90;;;;;;4948613;28;20047;-63
2024/03/04 09:19:41;;;;;;;8.75;6.43;;;7.80;99.90;;;;;;4948552;28;20051;-63
2024/03/04 09:22:08;;;;;;;9.55;7.28;;;7.80;99.90;;;;;;4949118;28;20096;-63
2024/03/04 09:24:35;;;;;;;7.75;6.25;;;8.00;99.90;;;;;;4948490;28;20661;-61
2024/03/04 09:27:02;;;;;;;8.25;6.13;;;8.10;99.90;;;;;;4955906;28;20154;-62
2024/03/04 09:29:29;;;;;;;7.55;5.22;;;8.20;99.90;;;;;;4953900;28;20054;-62
2024/03/04 09:31:56;;;;;;;6.95;4.93;;;8.30;99.90;;;;;;4952017;28;20461;-62
2024/03/04 09:34:23;;;;;;;10.75;5.85;;;8.50;99.90;;;;;;4950778;28;20085;-62
2024/03/04 09:36:50;;;;;;;8.52;5.78;;;8.70;99.90;;;;;;4950695;28;20057;-61
2024/03/04 09:39:17;;;;;;;9.45;5.50;;;8.90;99.90;;;;;;4946417;28;20086;-62
2024/03/04 09:41:43;;;;;;;5.55;4.95;;;9.10;99.90;;;;;;4955634;28;20130;-63
2024/03/04 09:44:11;;;;;;;6.40;4.72;;;9.20;99.90;;;;;;4949763;28;20465;-63
2024/03/04 09:46:38;;;;;;;6.88;4.63;;;9.30;99.90;;;;;;4948171;28;20472;-63
2024/03/04 09:49:08;;;;;;;6.15;4.50;;;9.30;99.90;;;;;;4952057;28;20450;-63
2024/03/04 09:51:36;;;;;;;5.82;4.63;;;9.30;99.90;;;;;;4949507;28;20051;-63
2024/03/04 09:54:04;;;;;;;5.43;4.45;;;9.40;99.90;;;;;;4951402;28;20099;-63
2024/03/04 09:56:31;;;;;;;7.05;4.38;;;9.50;99.90;;;;;;4948678;28;20115;-63
2024/03/04 09:58:57;;;;;;;7.47;4.65;;;9.40;99.90;;;;;;4948705;28;20055;-63
2024/03/04 10:01:24;;;;;;;6.10;4.20;;;9.40;99.90;;;;;;4947115;28;20660;-60
2024/03/04 10:03:54;;;;;;;5.57;3.80;;;9.50;99.90;;;;;;4948562;28;20062;-62
2024/03/04 10:06:21;;;;;;;6.68;4.97;;;9.60;99.90;;;;;;4956212;28;20058;-63
2024/03/04 10:08:48;;;;;;;6.28;3.90;;;9.70;99.90;;;;;;4947735;28;20110;-62
2024/03/04 10:11:15;;;;;;;7.13;3.90;;;9.70;99.90;;;;;;4951968;28;20047;-59
2024/03/04 10:13:42;;;;;;;4.70;3.90;;;9.90;99.90;;;;;;4950086;28;20122;-61
2024/03/04 10:16:13;;;;;;;4.40;3.88;;;9.80;99.90;;;;;;4936460;28;20047;-62
2024/03/04 10:18:41;;;;;;;5.05;3.70;;;9.70;99.90;;;;;;4947027;28;20051;-61
2024/03/04 10:21:08;;;;;;;5.95;3.70;;;9.80;99.90;;;;;;4951364;28;20057;-60
2024/03/04 10:23:36;;;;;;;4.30;3.45;;;9.90;99.90;;;;;;4955445;28;20054;-61
2024/03/04 10:26:09;;;;;;;6.68;3.83;;;9.90;99.90;;;;;;4955975;28;20065;-61
2024/03/04 10:28:41;;;;;;;6.38;4.45;;;10.10;99.90;;;;;;4949101;28;20053;-61
2024/03/04 10:31:12;;;;;;;7.68;4.90;;;10.10;99.90;;;;;;4949763;28;20127;-59
2024/03/04 10:33:42;;;;;;;4.95;4.15;;;10.10;99.90;;;;;;4948515;28;20055;-61
2024/03/04 10:36:17;;;;;;;6.50;4.45;;;10.10;99.90;;;;;;4934621;28;20054;-63
2024/03/04 10:38:46;;;;;;;7.70;4.63;;;10.10;99.90;;;;;;4948151;28;20053;-61
2024/03/04 10:41:18;;;;;;;7.95;4.25;;;10.20;99.90;;;;;;4948516;28;20518;-63
2024/03/04 10:43:45;;;;;;;4.93;4.10;;;10.20;99.90;;;;;;4951075;28;20077;-62
2024/03/04 10:46:14;;;;;;;7.63;4.63;;;10.20;99.90;;;;;;4951573;28;20055;-64
2024/03/04 10:48:41;;;;;;;6.93;4.80;;;10.20;99.90;;;;;;4946264;28;20587;-63
2024/03/04 10:51:08;;;;;;;6.50;4.80;;;10.10;99.90;;;;;;4948608;28;20107;-63
2024/03/04 10:53:35;;;;;;;5.47;4.18;;;10.00;99.90;;;;;;4951478;28;20118;-63
2024/03/04 10:56:05;;;;;;;8.13;4.57;;;10.10;99.90;;;;;;4950240;28;20054;-63
2024/03/04 10:58:33;;;;;;;5.22;4.13;;;10.10;99.90;;;;;;4948408;28;20051;-63
2024/03/04 11:01:05;;;;;;;6.07;4.57;;;10.20;99.90;;;;;;4951771;28;20058;-63
2024/03/04 11:03:36;;;;;;;6.28;4.40;;;10.10;99.90;;;;;;4949007;28;20054;-63
2024/03/04 11:06:07;;;;;;;7.03;5.18;;;10.10;99.90;;;;;;4951668;28;20098;-63
2024/03/04 11:08:38;;;;;;;10.02;5.60;;;9.90;99.90;;;;;;4947959;28;20657;-63
2024/03/04 11:11:22;;;;;;;7.13;5.90;;;9.90;99.90;;;;;;4948011;28;20043;-63
2024/03/04 11:13:55;;;;;;;6.97;4.90;;;9.80;99.90;;;;;;4944296;28;20047;-64
2024/03/04 11:16:27;;;;;;;8.07;5.43;;;9.70;99.90;;;;;;4948392;28;20532;-63
2024/03/04 11:19:25;;;;;;;7.90;5.18;;;9.50;99.90;;;;;;4949337;28;20047;-63
2024/03/04 11:21:56;;;;;;;10.23;5.85;;;9.60;99.90;;;;;;4945162;28;20043;-63
2024/03/04 11:24:23;;;;;;;9.52;5.88;;;9.50;99.90;;;;;;4948595;28;20146;-63
2024/03/04 11:26:51;;;;;;;7.60;5.68;;;9.50;99.90;;;;;;4939070;23;20056;-63
2024/03/04 11:29:21;;;;;;;8.90;5.72;;;9.60;99.90;;;;;;4917340;29;20048;-63
2024/03/04 11:31:59;;;;;;;7.25;4.95;;;9.50;99.90;;;;;;4929881;29;20052;-63
2024/03/04 11:34:26;;;;;;;8.20;5.93;;;9.60;99.90;;;;;;4931703;29;20135;-65
2024/03/04 11:36:57;;;;;;;8.05;5.40;;;9.80;99.90;;;;;;4937173;29;20043;-64
2024/03/04 11:39:25;;;;;;;8.45;5.50;;;9.80;99.90;;;;;;4929943;29;20115;-63
2024/03/04 11:41:52;;;;;;;8.88;5.82;;;9.80;99.90;;;;;;4934191;29;20048;-63
2024/03/04 11:44:22;;;;;;;11.88;6.53;;;9.90;99.90;;;;;;4932023;29;20099;-63
2024/03/04 11:46:50;;;;;;;7.57;5.22;;;9.80;99.90;;;;;;4929836;29;20474;-63
2024/03/04 11:49:32;;;;;;;12.52;6.60;;;9.70;99.90;;;;;;4931424;29;20055;-63
2024/03/04 11:52:06;;;;;;;8.32;5.50;;;9.80;99.90;;;;;;4926761;29;20054;-63
2024/03/04 11:54:34;;;;;;;8.55;6.05;;;9.80;99.90;;;;;;4930227;28;20054;-62
2024/03/04 11:57:03;;;;;;;9.32;5.13;;;9.90;99.90;;;;;;4929339;29;20044;-65
2024/03/04 11:59:31;;;;;;;9.18;6.38;;;9.90;99.90;;;;;;4932885;29;20044;-64
2024/03/04 12:01:58;;;;;;;7.55;5.45;;;10.00;99.90;;;;;;4927834;29;20712;-62
2024/03/04 12:04:27;;;;;;;11.70;6.25;;;9.90;99.90;;;;;;4925546;29;20071;-61
2024/03/04 12:06:55;;;;;;;14.13;7.00;;;9.80;99.90;;;;;;4929390;29;20082;-60
2024/03/04 12:09:24;;;;;;;8.98;6.45;;;9.90;99.90;;;;;;4932878;29;20063;-59
2024/03/04 12:12:13;;;;;;;10.40;6.10;;;10.00;99.90;;;;;;4936667;29;20059;-61
2024/03/04 12:14:42;;;;;;;11.23;6.18;;;10.00;99.90;;;;;;4930245;29;20055;-62
2024/03/04 12:17:13;;;;;;;11.88;6.25;;;10.00;99.90;;;;;;4929977;29;20584;-63
2024/03/04 12:19:56;;;;;;;9.70;6.75;;;10.00;99.90;;;;;;4929565;29;20123;-63
2024/03/04 12:22:27;;;;;;;10.68;6.38;;;9.70;99.90;;;;;;4932063;28;20043;-61
2024/03/04 12:25:05;;;;;;;9.30;6.43;;;9.80;99.90;;;;;;4928230;29;20424;-62
2024/03/04 12:27:33;;;;;;;10.18;6.50;;;10.00;99.90;;;;;;4932975;29;20063;-61
2024/03/04 12:30:14;;;;;;;10.85;5.88;;;10.20;99.90;;;;;;4934442;29;20074;-61
2024/03/04 12:32:41;;;;;;;8.25;6.00;;;10.20;99.90;;;;;;4932246;29;20180;-62
2024/03/04 12:35:23;;;;;;;15.52;8.18;;;10.30;99.90;;;;;;4936472;29;20039;-63
2024/03/04 12:37:51;;;;;;;11.65;6.43;;;10.50;99.90;;;;;;4934192;29;20052;-62
2024/03/04 12:40:20;;;;;;;11.98;6.65;;;10.50;99.90;;;;;;4933371;29;20504;-63
2024/03/04 12:42:55;;;;;;;9.45;6.10;;;10.70;99.90;;;;;;4926679;29;22620;-62
2024/03/04 12:45:25;;;;;;;7.45;5.82;;;10.90;99.90;;;;;;4936931;29;20444;-63
2024/03/04 12:47:55;;;;;;;10.43;6.45;;;10.80;99.90;;;;;;4931627;29;20107;-60
2024/03/04 12:50:27;;;;;;;8.10;6.43;;;10.90;99.90;;;;;;4932371;29;20563;-63
2024/03/04 12:52:56;;;;;;;8.65;6.18;;;11.10;99.90;;;;;;4916705;29;20492;-62
2024/03/04 12:55:24;;;;;;;10.45;6.55;;;11.20;99.90;;;;;;4933945;29;20064;-63
2024/03/04 12:57:58;;;;;;;10.70;6.57;;;11.40;99.90;;;;;;4935205;29;20139;-62
2024/03/04 13:00:26;;;;;;;9.23;6.20;;;11.50;99.90;;;;;;4938009;29;20087;-63